createdAt,value
2019-03-18T00:01:31.300Z,55.43
2019-03-18T00:04:00.284Z,55.45
2019-03-18T00:06:29.390Z,55.58
2019-03-18T00:08:58.494Z,55.48
2019-03-18T00:11:27.579Z,55.52
2019-03-18T00:13:56.574Z,55.38
2019-03-18T00:16:25.617Z,55.24
2019-03-18T00:18:54.622Z,55.14
2019-03-18T00:21:23.684Z,55.09
2019-03-18T00:23:52.722Z,54.99
2019-03-18T00:26:21.756Z,54.90
2019-03-18T00:28:50.867Z,54.81
2019-03-18T00:31:19.934Z,54.67
2019-03-18T00:33:48.969Z,54.80
2019-03-18T00:36:18.059Z,54.79
2019-03-18T00:38:47.116Z,54.77
2019-03-18T00:41:16.158Z,54.66
2019-03-18T00:43:45.235Z,54.74
2019-03-18T00:46:14.260Z,54.74
2019-03-18T00:48:43.343Z,54.75
2019-03-18T00:51:12.411Z,54.57
2019-03-18T00:53:41.409Z,54.66
2019-03-18T00:56:10.496Z,54.78
2019-03-18T00:58:39.560Z,54.88
2019-03-18T01:01:08.640Z,54.92
2019-03-18T01:03:37.646Z,54.95
2019-03-18T01:06:06.674Z,54.87
2019-03-18T01:08:35.791Z,54.88
2019-03-18T01:11:04.874Z,54.98
2019-03-18T01:13:33.928Z,55.17
2019-03-18T01:16:03.007Z,55.18
2019-03-18T01:18:32.031Z,55.16
2019-03-18T01:21:01.108Z,55.06
2019-03-18T01:23:30.132Z,54.98
2019-03-18T01:25:59.161Z,54.81
2019-03-18T01:28:28.220Z,54.77
2019-03-18T01:30:57.259Z,54.77
2019-03-18T01:33:26.312Z,54.76
2019-03-18T01:35:55.377Z,54.67
2019-03-18T01:38:24.471Z,54.62
2019-03-18T01:40:53.619Z,54.69
2019-03-18T01:43:22.676Z,54.71
2019-03-18T01:45:51.811Z,54.72
2019-03-18T01:48:20.809Z,54.85
2019-03-18T01:50:49.884Z,54.97
2019-03-18T01:53:18.913Z,55.14
2019-03-18T01:55:48.008Z,55.20
2019-03-18T01:58:16.980Z,55.24
2019-03-18T02:00:46.000Z,55.22
2019-03-18T02:03:14.977Z,55.25
2019-03-18T02:05:43.972Z,55.35
2019-03-18T02:08:12.956Z,55.38
2019-03-18T02:10:41.952Z,55.22
2019-03-18T02:13:10.967Z,55.36
2019-03-18T02:15:52.419Z,55.29
2019-03-18T02:18:10.549Z,55.43
2019-03-18T02:20:39.577Z,55.30
2019-03-18T02:23:08.506Z,55.20
2019-03-18T02:25:37.430Z,55.22
2019-03-18T02:28:06.426Z,55.17
2019-03-18T02:30:35.492Z,55.17
2019-03-18T02:33:04.420Z,55.17
2019-03-18T02:35:33.446Z,54.93
2019-03-18T02:38:02.485Z,54.89
2019-03-18T02:40:31.488Z,54.77
2019-03-18T02:43:00.565Z,54.68
2019-03-18T02:45:29.569Z,54.75
2019-03-18T02:47:58.563Z,54.75
2019-03-18T02:50:27.628Z,54.67
2019-03-18T02:52:56.622Z,54.62
2019-03-18T02:55:25.652Z,54.61
2019-03-18T02:57:54.654Z,54.52
2019-03-18T03:00:23.736Z,54.51
2019-03-18T03:02:52.728Z,54.48
2019-03-18T03:05:21.698Z,54.50
2019-03-18T03:07:50.860Z,54.49
2019-03-18T03:10:19.958Z,54.45
2019-03-18T03:12:49.335Z,54.34
2019-03-18T03:15:18.306Z,54.41
2019-03-18T03:17:47.398Z,54.27
2019-03-18T03:20:16.695Z,54.29
2019-03-18T03:22:45.682Z,54.31
2019-03-18T03:25:14.800Z,54.39
2019-03-18T03:27:43.823Z,54.48
2019-03-18T03:30:12.889Z,54.55
2019-03-18T03:32:41.999Z,54.58
2019-03-18T03:35:11.765Z,54.74
2019-03-18T03:37:40.823Z,54.78
2019-03-18T03:40:09.870Z,54.88
2019-03-18T03:42:38.908Z,55.18
2019-03-18T03:45:07.936Z,55.16
2019-03-18T03:47:36.983Z,55.36
2019-03-18T03:50:06.375Z,55.51
2019-03-18T03:52:35.431Z,55.47
2019-03-18T03:55:04.475Z,55.43
2019-03-18T03:57:33.534Z,55.62
2019-03-18T04:00:02.575Z,55.72
2019-03-18T04:02:31.539Z,55.81
2019-03-18T04:05:00.591Z,56.03
2019-03-18T04:07:29.746Z,56.24
2019-03-18T04:09:58.701Z,56.34
2019-03-18T04:12:27.698Z,56.43
2019-03-18T04:14:56.688Z,56.51
2019-03-18T04:17:25.741Z,56.69
2019-03-18T04:19:57.366Z,56.71
2019-03-18T04:22:26.378Z,56.81
2019-03-18T04:24:55.364Z,56.75
2019-03-18T04:27:26.505Z,56.86
2019-03-18T04:29:55.529Z,56.95
2019-03-18T04:32:24.573Z,56.98
2019-03-18T04:34:53.593Z,56.99
2019-03-18T04:37:22.690Z,57.00
2019-03-18T04:39:51.705Z,57.07
2019-03-18T04:42:20.771Z,57.08
2019-03-18T04:44:49.805Z,57.05
2019-03-18T04:47:18.866Z,57.11
2019-03-18T04:49:47.794Z,57.05
2019-03-18T04:52:16.869Z,57.10
2019-03-18T04:54:45.908Z,57.14
2019-03-18T04:57:15.105Z,57.17
2019-03-18T04:59:44.194Z,57.19
2019-03-18T05:02:13.230Z,57.28
2019-03-18T05:04:42.292Z,57.28
2019-03-18T05:07:11.383Z,57.34
2019-03-18T05:09:40.403Z,57.37
2019-03-18T05:12:09.406Z,57.46
2019-03-18T05:14:38.387Z,57.54
2019-03-18T05:17:07.489Z,57.47
2019-03-18T05:19:36.535Z,57.53
2019-03-18T05:22:05.609Z,57.58
2019-03-18T05:24:34.525Z,57.53
2019-03-18T05:27:03.593Z,57.57
2019-03-18T05:29:32.587Z,57.58
2019-03-18T05:32:01.612Z,57.54
2019-03-18T05:34:30.551Z,57.58
2019-03-18T05:36:59.723Z,57.64
2019-03-18T05:39:28.808Z,57.60
2019-03-18T05:41:57.743Z,57.51
2019-03-18T05:44:26.675Z,57.61
2019-03-18T05:46:55.734Z,57.58
2019-03-18T05:49:24.702Z,57.46
2019-03-18T05:51:53.722Z,57.53
2019-03-18T05:54:22.683Z,57.58
2019-03-18T05:56:51.800Z,57.58
2019-03-18T05:59:20.998Z,57.61
2019-03-18T06:01:50.076Z,57.67
2019-03-18T06:04:19.138Z,57.66
2019-03-18T06:06:48.258Z,57.59
2019-03-18T06:09:17.355Z,57.71
2019-03-18T06:11:46.451Z,57.67
2019-03-18T06:14:15.545Z,57.76
2019-03-18T06:16:44.637Z,57.72
2019-03-18T06:19:13.722Z,57.88
2019-03-18T06:21:42.749Z,57.94
2019-03-18T06:24:11.737Z,58.04
2019-03-18T06:26:40.723Z,57.99
2019-03-18T06:29:09.792Z,57.97
2019-03-18T06:31:38.750Z,58.00
2019-03-18T06:34:07.781Z,57.95
2019-03-18T06:36:36.813Z,57.98
2019-03-18T06:39:07.403Z,57.98
2019-03-18T06:41:36.555Z,57.98
2019-03-18T06:44:05.719Z,58.00
2019-03-18T06:46:57.698Z,57.92
2019-03-18T06:49:31.662Z,57.86
2019-03-18T06:52:04.363Z,57.80
2019-03-18T06:54:35.096Z,57.64
2019-03-18T06:57:04.586Z,57.39
2019-03-18T06:59:34.058Z,57.20
2019-03-18T07:02:06.058Z,57.03
2019-03-18T07:04:35.398Z,56.87
2019-03-18T07:07:08.139Z,56.66
2019-03-18T07:09:37.790Z,56.44
2019-03-18T07:12:09.072Z,56.61
2019-03-18T07:14:38.477Z,56.63
2019-03-18T07:17:08.026Z,56.83
2019-03-18T07:19:37.756Z,56.81
2019-03-18T07:22:07.115Z,56.62
2019-03-18T07:24:37.245Z,56.57
2019-03-18T07:27:08.552Z,56.34
2019-03-18T07:29:41.165Z,56.39
2019-03-18T07:32:59.796Z,56.05
2019-03-18T07:39:30.686Z,55.87
2019-03-18T07:42:38.281Z,55.90
2019-03-18T07:45:10.339Z,55.66
2019-03-18T07:50:32.751Z,55.30
2019-03-18T07:53:02.194Z,55.54
2019-03-18T07:55:31.292Z,55.27
2019-03-18T07:58:00.402Z,54.71
2019-03-18T08:00:36.299Z,54.59
2019-03-18T08:03:05.633Z,54.39
2019-03-18T08:05:37.058Z,53.36
2019-03-18T08:08:06.622Z,52.96
2019-03-18T08:36:17.456Z,50.57
2019-03-18T08:38:46.963Z,50.08
2019-03-18T08:41:16.102Z,49.57
2019-03-18T08:43:45.104Z,49.44
2019-03-18T08:46:14.260Z,48.91
2019-03-18T08:48:55.117Z,49.16
2019-03-18T08:51:14.130Z,49.25
2019-03-18T08:53:43.341Z,49.40
2019-03-18T08:56:12.394Z,49.87
2019-03-18T08:58:41.432Z,50.23
2019-03-18T09:01:12.439Z,50.52
2019-03-18T09:03:41.493Z,50.67
2019-03-18T09:06:10.578Z,50.89
2019-03-18T09:08:39.594Z,51.16
2019-03-18T09:11:08.737Z,51.36
2019-03-18T09:13:37.912Z,51.10
2019-03-18T09:16:06.955Z,50.54
2019-03-18T09:18:35.966Z,49.97
2019-03-18T09:21:05.029Z,48.64
2019-03-18T09:23:34.062Z,46.74
2019-03-18T09:26:03.061Z,44.17
2019-03-18T09:28:32.089Z,41.57
2019-03-18T09:31:01.170Z,38.27
2019-03-18T09:33:30.274Z,36.57
2019-03-18T09:35:59.771Z,33.69
2019-03-18T09:38:28.809Z,31.21
2019-03-18T09:40:58.019Z,29.01
2019-03-18T09:43:27.097Z,27.74
2019-03-18T09:45:56.480Z,26.56
2019-03-18T09:48:25.550Z,26.96
2019-03-18T09:50:54.542Z,27.22
2019-03-18T09:53:23.579Z,28.24
2019-03-18T09:55:52.561Z,29.57
2019-03-18T09:58:21.744Z,31.01
2019-03-18T10:00:50.831Z,31.57
2019-03-18T10:03:19.966Z,32.41
2019-03-18T10:05:49.116Z,33.20
2019-03-18T10:08:18.219Z,33.50
2019-03-18T10:10:47.302Z,34.33
2019-03-18T10:13:16.367Z,34.77
2019-03-18T10:15:45.388Z,35.49
2019-03-18T10:18:14.720Z,36.44
2019-03-18T10:20:43.691Z,37.13
2019-03-18T10:23:12.802Z,36.25
2019-03-18T10:25:41.923Z,35.80
2019-03-18T10:28:11.026Z,35.81
2019-03-18T10:30:40.081Z,35.80
2019-03-18T10:33:09.217Z,36.26
2019-03-18T10:35:38.274Z,36.13
2019-03-18T10:38:07.385Z,36.39
2019-03-18T10:40:36.411Z,36.32
2019-03-18T10:43:05.402Z,36.42
2019-03-18T10:45:34.486Z,36.75
2019-03-18T10:48:03.620Z,36.82
2019-03-18T10:50:32.756Z,36.79
2019-03-18T10:53:01.774Z,37.05
2019-03-18T10:55:30.835Z,37.42
2019-03-18T10:58:00.066Z,37.62
2019-03-18T11:00:29.118Z,37.75
2019-03-18T11:02:58.263Z,38.15
2019-03-18T11:05:27.406Z,37.91
2019-03-18T11:07:56.415Z,37.78
2019-03-18T11:10:25.498Z,37.34
2019-03-18T11:12:54.558Z,36.97
2019-03-18T11:15:23.598Z,36.53
2019-03-18T11:17:52.622Z,36.50
2019-03-18T11:20:21.716Z,35.83
2019-03-18T11:22:50.758Z,35.67
2019-03-18T11:25:19.817Z,34.55
2019-03-18T11:27:48.916Z,33.76
2019-03-18T11:30:18.032Z,31.83
2019-03-18T11:32:47.001Z,29.24
2019-03-18T11:35:16.224Z,27.50
2019-03-18T11:37:45.237Z,24.51
2019-03-18T11:40:14.332Z,22.00
2019-03-18T11:42:43.288Z,20.47
2019-03-18T11:45:12.382Z,18.95
2019-03-18T11:47:41.362Z,17.55
2019-03-18T11:50:11.973Z,16.63
2019-03-18T11:52:41.052Z,16.14
2019-03-18T11:55:11.912Z,15.77
2019-03-18T11:57:40.939Z,16.26
2019-03-18T12:00:12.034Z,15.58
2019-03-18T12:02:41.119Z,14.69
2019-03-18T12:05:12.981Z,13.70
2019-03-18T12:07:41.948Z,12.50
2019-03-18T12:10:12.891Z,12.32
2019-03-18T12:12:41.915Z,12.75
2019-03-18T12:15:11.999Z,12.99
2019-03-18T12:17:41.123Z,13.03
2019-03-18T12:20:23.199Z,12.99
2019-03-18T12:22:41.797Z,13.71
2019-03-18T12:25:10.749Z,14.54
2019-03-18T12:27:39.739Z,15.61
2019-03-18T12:30:12.379Z,16.87
2019-03-18T12:32:41.435Z,18.13
2019-03-18T12:35:10.419Z,18.84
2019-03-18T12:37:39.476Z,19.96
2019-03-18T12:40:10.245Z,20.21
2019-03-18T12:42:39.207Z,20.97
2019-03-18T12:45:09.534Z,21.98
2019-03-18T12:47:38.678Z,22.69
2019-03-18T12:50:09.854Z,23.51
2019-03-18T12:52:38.814Z,24.19
2019-03-18T12:55:07.870Z,24.60
2019-03-18T12:57:36.924Z,24.93
2019-03-18T13:00:08.586Z,25.47
2019-03-18T13:02:37.623Z,26.00
2019-03-18T13:05:07.536Z,26.44
2019-03-18T13:07:36.558Z,26.93
2019-03-18T13:10:06.620Z,27.41
2019-03-18T13:12:35.671Z,28.05
2019-03-18T13:15:05.481Z,28.83
2019-03-18T13:17:34.592Z,29.43
2019-03-18T13:20:03.568Z,29.85
2019-03-18T13:22:32.651Z,30.09
2019-03-18T13:25:01.643Z,30.30
2019-03-18T13:27:30.725Z,30.05
2019-03-18T13:29:59.760Z,30.11
2019-03-18T13:32:28.671Z,30.19
2019-03-18T13:34:57.657Z,30.10
2019-03-18T13:37:26.724Z,30.05
2019-03-18T13:39:55.808Z,29.46
2019-03-18T13:42:24.921Z,29.76
2019-03-18T13:44:54.158Z,30.16
2019-03-18T13:47:23.187Z,30.35
2019-03-18T13:49:52.286Z,30.54
2019-03-18T13:52:21.396Z,30.58
2019-03-18T13:54:50.518Z,30.47
2019-03-18T13:57:19.667Z,30.40
2019-03-18T13:59:48.746Z,30.26
2019-03-18T14:02:17.732Z,30.37
2019-03-18T14:04:46.816Z,30.12
2019-03-18T14:07:15.838Z,30.31
2019-03-18T14:09:44.905Z,30.10
2019-03-18T14:12:13.952Z,29.82
2019-03-18T14:14:42.947Z,29.82
2019-03-18T14:17:11.989Z,29.89
2019-03-18T14:19:41.085Z,29.98
2019-03-18T14:22:10.154Z,30.11
2019-03-18T14:24:39.191Z,30.32
2019-03-18T14:27:08.273Z,30.48
2019-03-18T14:29:37.215Z,30.50
2019-03-18T14:32:06.133Z,30.46
2019-03-18T14:34:35.177Z,30.57
2019-03-18T14:37:07.683Z,30.55
2019-03-18T14:39:37.131Z,30.76
2019-03-18T14:42:07.202Z,30.75
2019-03-18T14:44:36.362Z,30.93
2019-03-18T14:47:05.471Z,30.91
2019-03-18T14:49:34.664Z,31.00
2019-03-18T14:52:03.620Z,31.33
2019-03-18T14:54:32.898Z,31.17
2019-03-18T14:57:01.896Z,31.30
2019-03-18T14:59:30.994Z,31.17
2019-03-18T15:01:59.927Z,31.25
2019-03-18T15:04:29.103Z,31.23
2019-03-18T15:06:58.112Z,31.50
2019-03-18T15:09:27.212Z,31.53
2019-03-18T15:11:56.268Z,31.77
2019-03-18T15:14:25.333Z,32.04
2019-03-18T15:16:54.562Z,32.37
2019-03-18T15:19:23.634Z,32.36
2019-03-18T15:21:58.497Z,32.47
2019-03-18T15:24:23.425Z,32.60
2019-03-18T15:26:52.493Z,32.66
2019-03-18T15:29:21.595Z,32.94
2019-03-18T15:31:52.234Z,33.28
2019-03-18T15:34:21.429Z,33.07
2019-03-18T15:36:50.508Z,33.07
2019-03-18T15:39:19.588Z,33.31
2019-03-18T15:41:48.670Z,33.20
2019-03-18T15:44:17.777Z,32.94
2019-03-18T15:46:46.871Z,32.52
2019-03-18T15:49:15.916Z,32.28
2019-03-18T15:51:45.007Z,32.05
2019-03-18T15:54:14.125Z,32.13
2019-03-18T15:56:43.287Z,32.26
2019-03-18T15:59:17.398Z,32.19
2019-03-18T16:01:46.563Z,32.25
2019-03-18T16:04:15.727Z,32.43
2019-03-18T16:06:45.070Z,32.26
2019-03-18T16:09:14.227Z,31.84
2019-03-18T16:11:43.303Z,31.92
2019-03-18T16:14:12.346Z,31.98
2019-03-18T16:16:41.505Z,32.05
2019-03-18T16:19:10.583Z,32.25
2019-03-18T16:21:39.695Z,33.33
2019-03-18T16:24:08.895Z,33.88
2019-03-18T16:26:37.993Z,34.35
2019-03-18T16:29:08.194Z,34.89
2019-03-18T16:31:37.251Z,35.41
2019-03-18T16:34:06.245Z,35.76
2019-03-18T16:36:35.253Z,36.03
2019-03-18T16:39:08.259Z,36.21
2019-03-18T16:41:37.387Z,36.26
2019-03-18T16:44:08.290Z,36.16
2019-03-18T16:46:37.435Z,36.27
2019-03-18T16:49:06.437Z,36.28
2019-03-18T16:51:35.425Z,36.38
2019-03-18T16:54:04.575Z,36.39
2019-03-18T16:56:33.657Z,36.48
2019-03-18T16:59:02.677Z,36.52
2019-03-18T17:01:31.777Z,36.62
2019-03-18T17:04:00.884Z,36.68
2019-03-18T17:06:29.934Z,36.76
2019-03-18T17:08:58.998Z,36.89
2019-03-18T17:11:28.022Z,37.04
2019-03-18T17:13:57.038Z,37.23
2019-03-18T17:16:26.096Z,37.33
2019-03-18T17:18:55.099Z,37.37
2019-03-18T17:21:24.209Z,37.50
2019-03-18T17:23:53.224Z,37.74
2019-03-18T17:26:25.061Z,37.75
2019-03-18T17:28:54.197Z,37.93
2019-03-18T17:31:23.292Z,37.95
2019-03-18T17:33:52.261Z,38.21
2019-03-18T17:36:21.281Z,38.44
2019-03-18T17:38:50.282Z,38.54
2019-03-18T17:41:19.421Z,38.74
2019-03-18T17:43:48.653Z,38.87
2019-03-18T17:46:17.871Z,39.00
2019-03-18T17:48:47.071Z,39.21
2019-03-18T17:51:16.157Z,39.18
2019-03-18T17:53:45.169Z,39.19
2019-03-18T17:56:14.162Z,39.33
2019-03-18T17:58:43.276Z,39.53
2019-03-18T18:01:12.421Z,39.71
2019-03-18T18:03:41.525Z,39.63
2019-03-18T18:06:10.931Z,39.53
2019-03-18T18:08:40.087Z,39.53
2019-03-18T18:11:09.134Z,39.48
2019-03-18T18:13:38.224Z,39.51
2019-03-18T18:16:07.379Z,39.58
2019-03-18T18:18:36.510Z,39.59
2019-03-18T18:21:07.874Z,39.54
2019-03-18T18:23:36.954Z,39.43
2019-03-18T18:26:09.278Z,39.49
2019-03-18T18:28:38.340Z,39.57
2019-03-18T18:31:07.352Z,39.61
2019-03-18T18:33:36.452Z,39.62
2019-03-18T18:36:05.484Z,39.73
2019-03-18T18:38:34.577Z,39.89
2019-03-18T18:41:03.639Z,40.04
2019-03-18T18:43:32.701Z,40.14
2019-03-18T18:46:01.768Z,40.27
2019-03-18T18:48:32.262Z,40.33
2019-03-18T18:51:01.493Z,40.48
2019-03-18T18:53:32.777Z,40.66
2019-03-18T18:56:01.921Z,40.82
2019-03-18T18:58:31.114Z,40.90
2019-03-18T19:01:01.260Z,41.04
2019-03-18T19:03:30.583Z,41.14
2019-03-18T19:05:59.864Z,41.29
2019-03-18T19:08:28.899Z,41.31
2019-03-18T19:10:58.016Z,41.44
2019-03-18T19:13:27.024Z,41.54
2019-03-18T19:15:56.095Z,41.68
2019-03-18T19:18:25.082Z,41.78
2019-03-18T19:20:54.054Z,41.85
2019-03-18T19:23:23.147Z,41.89
2019-03-18T19:25:52.261Z,42.00
2019-03-18T19:28:21.419Z,42.13
2019-03-18T19:30:50.391Z,42.21
2019-03-18T19:33:19.438Z,42.35
2019-03-18T19:35:48.539Z,42.40
2019-03-18T19:38:17.627Z,42.53
2019-03-18T19:40:46.655Z,42.68
2019-03-18T19:43:15.698Z,42.74
2019-03-18T19:45:44.720Z,42.82
2019-03-18T19:48:13.840Z,42.88
2019-03-18T19:50:42.891Z,42.89
2019-03-18T19:53:11.917Z,42.92
2019-03-18T19:55:40.817Z,42.96
2019-03-18T19:58:09.895Z,43.06
2019-03-18T20:00:39.002Z,43.15
2019-03-18T20:03:07.943Z,43.19
2019-03-18T20:05:36.933Z,43.32
2019-03-18T20:08:05.941Z,43.38
2019-03-18T20:10:34.902Z,43.42
2019-03-18T20:13:04.997Z,43.42
2019-03-18T20:15:34.267Z,43.43
2019-03-18T20:18:03.295Z,43.53
2019-03-18T20:20:32.205Z,43.68
2019-03-18T20:23:01.355Z,43.73
2019-03-18T20:25:30.332Z,43.86
2019-03-18T20:27:59.412Z,43.91
2019-03-18T20:30:28.279Z,43.88
2019-03-18T20:32:57.338Z,43.84
2019-03-18T20:35:26.264Z,44.00
2019-03-18T20:37:55.340Z,44.01
2019-03-18T20:40:24.596Z,44.06
2019-03-18T20:42:53.618Z,44.22
2019-03-18T20:45:22.743Z,44.33
2019-03-18T20:47:51.866Z,44.51
2019-03-18T20:50:20.920Z,44.66
2019-03-18T20:52:50.207Z,44.92
2019-03-18T20:55:19.182Z,45.17
2019-03-18T20:57:48.311Z,45.36
2019-03-18T21:00:17.314Z,45.48
2019-03-18T21:02:46.385Z,45.56
2019-03-18T21:05:15.431Z,45.76
2019-03-18T21:07:44.445Z,45.89
2019-03-18T21:10:16.267Z,45.98
2019-03-18T21:12:45.302Z,46.03
2019-03-18T21:15:14.340Z,46.14
2019-03-18T21:17:43.388Z,46.38
2019-03-18T21:20:16.832Z,46.33
2019-03-18T21:22:45.947Z,46.49
2019-03-18T21:25:14.874Z,46.56
2019-03-18T21:27:43.869Z,46.75
2019-03-18T21:30:13.120Z,46.99
2019-03-18T21:32:42.149Z,47.12
2019-03-18T21:35:11.246Z,47.16
2019-03-18T21:37:40.321Z,47.12
2019-03-18T21:40:10.487Z,47.30
2019-03-18T21:42:39.429Z,47.48
2019-03-18T21:45:09.861Z,47.57
2019-03-18T21:47:38.904Z,47.72
2019-03-18T21:50:08.307Z,47.96
2019-03-18T21:52:37.327Z,48.12
2019-03-18T21:55:06.420Z,48.24
2019-03-18T21:57:35.407Z,48.35
2019-03-18T22:00:04.737Z,48.56
2019-03-18T22:02:33.735Z,48.28
2019-03-18T22:05:02.776Z,48.20
2019-03-18T22:07:31.691Z,48.17
2019-03-18T22:10:00.770Z,48.21
2019-03-18T22:12:29.688Z,48.20
2019-03-18T22:14:58.613Z,48.29
2019-03-18T22:17:27.569Z,48.33
2019-03-18T22:19:56.575Z,48.49
2019-03-18T22:22:25.564Z,48.64
2019-03-18T22:24:54.613Z,48.72
2019-03-18T22:27:23.656Z,48.87
2019-03-18T22:29:52.860Z,48.87
2019-03-18T22:32:21.872Z,48.86
2019-03-18T22:34:50.852Z,49.01
2019-03-18T22:37:19.797Z,49.12
2019-03-18T22:39:48.793Z,49.18
2019-03-18T22:42:17.787Z,49.35
2019-03-18T22:44:47.661Z,49.51
2019-03-18T22:47:16.864Z,49.66
2019-03-18T22:49:45.882Z,49.81
2019-03-18T22:52:14.901Z,50.04
2019-03-18T22:54:43.898Z,50.11
2019-03-18T22:57:12.995Z,50.14
2019-03-18T22:59:41.985Z,50.32
2019-03-18T23:02:10.980Z,50.44
2019-03-18T23:04:39.903Z,50.41
2019-03-18T23:07:08.948Z,50.55
2019-03-18T23:09:37.964Z,50.66
2019-03-18T23:12:06.928Z,50.78
2019-03-18T23:14:35.763Z,50.82
2019-03-18T23:17:04.787Z,50.99
2019-03-18T23:19:33.806Z,50.98
2019-03-18T23:22:02.797Z,51.16
2019-03-18T23:24:31.926Z,51.31
2019-03-18T23:27:00.986Z,51.34
2019-03-18T23:29:29.912Z,51.42
2019-03-18T23:31:58.893Z,51.52
2019-03-18T23:34:27.952Z,51.65
2019-03-18T23:36:56.938Z,51.65
2019-03-18T23:39:25.893Z,51.84
2019-03-18T23:41:54.910Z,51.95
2019-03-18T23:44:23.849Z,52.08
2019-03-18T23:46:52.706Z,52.08
2019-03-18T23:49:21.828Z,52.25
2019-03-18T23:51:50.840Z,52.26
2019-03-18T23:54:19.908Z,52.31
2019-03-18T23:56:48.880Z,52.35
2019-03-18T23:59:17.926Z,52.39
